الصفحة الرئيسية
METAR-TAF:

METAR-TAF

مطار :

كوبر بيدي, أستراليا

دائرة عرض: 29-02-24S, خط طول: 134-43-18E, ارتفاع: 226 متر

مراقبة الطقس الحالي

تاريخ ووقت الإصدار 1ساعة و 22 دقيقة قبل الساعة 20:00UTC
ريح 13 عقدة من الشمال الشرقي
درجة الحرارة 12°درجة مئوية
الرطوبة 58%
ضغط 1018 hPa
الرؤية 10 كم أو أكثر

METAR: YCBP 252000Z AUTO 04013KT 9999 // NCD 12/04 Q1018

زمن: 06:52 (21:22 UTC)


TAF: مفقودة

أرصاد الطقس والتوقعات من أكثر من 4000 مطار (تقارير الطقس للمطار METAR والتنبؤ بالطقس بالمطارTAF).

المحطات المتاحة هي النقط الصفراء والحمراء على الخريطة.

حرك المؤشر فوق النقطة لمعرفة اسم المحطة.

ثم انقر لمعرفة أرصاد وتوقعات الطقس.

لتغيير الخارطة: اضغط على الأزرار الخضراء مع رمز الصليب الأسود للتكبير. على الزر الأخضر مع شرطة للتصغير، أو على الأسهم الخضراء للخرائط المجاورة.


METAR-TAF: